KARB/ARB METAR and TAF weather

Enter ICAO airport designator
Station Type Date Time Source
KARB METAR 2022/01/27 22:02 UTC NOAA

KARB 272202Z 26012KT 10SM BKN029 OVC034 M03/M09 A3005 RMK AO2 T10281089


Station Type Date Time Source
KARB Decoded METAR 2022/01/27 22:02 UTC NOAA

ANN ARBOR MUNICIPAL AIRPORT, MI, United States (KARB) 42-13N 083-45W 251M
Jan 27, 2022 - 05:02 PM EST / 2022.01.27 2202 UTC
Wind: from the W (260 degrees) at 14 MPH (12 KT):0
Visibility: 10 mile(s):0
Sky conditions: overcast
Temperature: 27.0 F (-2.8 C)
Windchill: 15 F (-9 C):1
Dew Point: 16.0 F (-8.9 C)
Relative Humidity: 62%
Pressure (altimeter): 30.05 in. Hg (1017 hPa)
ob: KARB 272202Z 26012KT 10SM BKN029 OVC034 M03/M09 A3005 RMK AO2 T10281089
cycle: 22

Station Type Date Time Source
KARB TAF UTC NOAA

Error!

Example: see airport list